Time;durP1;ratioP1;P1;durP2;ratioP2;P2;SDS_P1;SDS_P2;PMS_P1;PMS_P2;Temp;Humidity;BMP_temperature;BMP_pressure;BME280_temperature;BME280_humidity;BME280_pressure;Samples;Min_cycle;Max_cycle;Signal;HPM_P1;HPM_P2
2024/03/03 00:00:14;;;;;;;9.75;4.80;;;19.80;41.70;;;;;;8362997;28;19951;-47
2024/03/03 00:04:17;;;;;;;9.60;4.63;;;19.80;42.10;;;;;;8362304;28;20037;-47
2024/03/03 00:08:18;;;;;;;8.95;5.10;;;19.80;42.20;;;;;;8362703;28;20025;-48
2024/03/03 00:12:19;;;;;;;17.35;5.10;;;19.80;42.20;;;;;;8362478;28;20121;-46
2024/03/03 00:16:21;;;;;;;9.82;5.53;;;19.80;42.50;;;;;;8362386;28;20048;-47
2024/03/03 00:20:23;;;;;;;10.98;4.78;;;19.80;42.10;;;;;;8361254;28;20025;-45
2024/03/03 00:24:24;;;;;;;;;;;19.80;42.30;;;;;;8362555;28;20459;-47
2024/03/03 00:28:26;;;;;;;7.75;4.22;;;19.80;42.40;;;;;;8361914;28;19996;-45
2024/03/03 00:32:27;;;;;;;14.45;4.10;;;19.80;42.20;;;;;;8360468;28;20029;-46
2024/03/03 00:36:29;;;;;;;9.32;4.18;;;19.80;42.60;;;;;;8362129;28;20057;-47
2024/03/03 00:40:32;;;;;;;10.52;4.57;;;19.80;42.60;;;;;;8361928;28;20025;-45
2024/03/03 00:44:33;;;;;;;6.13;4.00;;;19.80;42.40;;;;;;8361537;28;20044;-47
2024/03/03 00:48:34;;;;;;;6.43;4.03;;;19.80;42.40;;;;;;8361709;28;20032;-45
2024/03/03 00:52:37;;;;;;;8.18;4.32;;;19.80;42.40;;;;;;8361843;28;20025;-47
2024/03/03 00:56:41;;;;;;;;;;;19.80;42.50;;;;;;8362406;28;20036;-46
2024/03/03 01:00:42;;;;;;;11.00;4.43;;;19.80;42.30;;;;;;8361764;28;19905;-46
2024/03/03 01:04:44;;;;;;;6.25;3.65;;;19.80;42.30;;;;;;8361496;28;20108;-45
2024/03/03 01:08:45;;;;;;;7.72;3.95;;;19.80;42.50;;;;;;8361690;28;20475;-49
2024/03/03 01:12:45;;;;;;;9.13;3.90;;;19.80;42.60;;;;;;8361475;28;20468;-47
2024/03/03 01:16:48;;;;;;;6.93;4.20;;;19.70;42.60;;;;;;8362582;28;20075;-46
2024/03/03 01:20:49;;;;;;;10.90;4.20;;;19.80;42.70;;;;;;8368121;28;20111;-45
2024/03/03 01:24:50;;;;;;;8.23;3.80;;;19.80;42.90;;;;;;8367680;28;20021;-46
2024/03/03 01:28:51;;;;;;;8.73;4.28;;;19.80;42.90;;;;;;8368023;28;20021;-45
2024/03/03 01:32:53;;;;;;;5.55;3.70;;;19.80;43.10;;;;;;8360516;28;20040;-47
2024/03/03 01:36:54;;;;;;;7.75;4.18;;;19.80;43.10;;;;;;8334576;28;20434;-46
2024/03/03 01:40:56;;;;;;;7.63;3.88;;;19.70;42.90;;;;;;8343128;28;20112;-46
2024/03/03 01:44:57;;;;;;;11.05;3.75;;;19.70;42.50;;;;;;8366947;28;20021;-45
2024/03/03 01:48:59;;;;;;;7.68;4.03;;;19.70;42.50;;;;;;8367359;28;20029;-46
2024/03/03 01:53:03;;;;;;;6.47;3.50;;;19.80;42.60;;;;;;8367274;28;20441;-48
2024/03/03 01:57:11;;;;;;;6.35;3.63;;;19.80;42.40;;;;;;8366231;28;20033;-46
2024/03/03 02:01:14;;;;;;;8.65;4.25;;;19.90;41.90;;;;;;8363437;28;20479;-47
2024/03/03 02:05:16;;;;;;;5.85;3.53;;;19.80;41.20;;;;;;8363725;28;20029;-47
2024/03/03 02:09:17;;;;;;;7.85;3.60;;;19.90;40.90;;;;;;8363466;28;20083;-47
2024/03/03 02:13:17;;;;;;;;;;;19.80;40.60;;;;;;8364030;28;20048;-47
2024/03/03 02:17:18;;;;;;;7.73;3.80;;;19.80;40.40;;;;;;8364225;28;19916;-47
2024/03/03 02:21:26;;;;;;;6.35;3.40;;;19.90;40.30;;;;;;8363950;28;20033;-47
2024/03/03 02:25:27;;;;;;;6.68;4.13;;;19.90;40.00;;;;;;8363942;28;20041;-47
2024/03/03 02:29:28;;;;;;;;;;;19.90;39.90;;;;;;8363029;28;20025;-47
2024/03/03 02:33:29;;;;;;;5.43;3.60;;;19.90;39.80;;;;;;8363458;28;19916;-45
2024/03/03 02:37:29;;;;;;;5.88;3.85;;;19.80;41.20;;;;;;8363587;28;20032;-48
2024/03/03 02:41:30;;;;;;;4.28;3.28;;;19.60;41.40;;;;;;8362993;28;20055;-46
2024/03/03 02:45:31;;;;;;;7.97;3.15;;;19.70;40.80;;;;;;8363434;28;20510;-47
2024/03/03 02:49:32;;;;;;;7.50;4.10;;;19.70;40.40;;;;;;8363497;28;20482;-47
2024/03/03 02:53:32;;;;;;;6.45;3.70;;;19.70;40.10;;;;;;8363092;28;20044;-46
2024/03/03 02:57:33;;;;;;;6.03;3.20;;;19.80;40.00;;;;;;8363327;28;20048;-47
2024/03/03 03:01:34;;;;;;;4.10;2.65;;;19.80;39.80;;;;;;8362953;28;20025;-46
2024/03/03 03:05:34;;;;;;;6.07;3.05;;;19.80;39.60;;;;;;8362655;28;20041;-48
2024/03/03 03:09:35;;;;;;;4.43;3.08;;;19.80;39.50;;;;;;8363139;28;20507;-47
2024/03/03 03:13:36;;;;;;;4.45;3.10;;;19.80;39.40;;;;;;8362472;28;20400;-47
2024/03/03 03:17:37;;;;;;;4.80;3.35;;;19.80;39.40;;;;;;8362398;28;20415;-48
2024/03/03 03:21:37;;;;;;;8.32;3.47;;;19.80;39.60;;;;;;8362557;28;20029;-49
2024/03/03 03:25:38;;;;;;;3.95;3.00;;;19.70;40.90;;;;;;8361766;28;20040;-46
2024/03/03 03:29:39;;;;;;;4.35;3.28;;;19.50;41.20;;;;;;8361615;28;20033;-47
2024/03/03 03:33:39;;;;;;;6.07;2.95;;;19.50;40.50;;;;;;8361743;28;20029;-48
2024/03/03 03:37:40;;;;;;;4.43;2.93;;;19.60;40.20;;;;;;8361583;28;20029;-47
2024/03/03 03:41:48;;;;;;;5.07;2.97;;;19.60;39.80;;;;;;8361882;28;20824;-46
2024/03/03 03:45:48;;;;;;;3.13;2.45;;;19.70;39.60;;;;;;8361441;28;20402;-47
2024/03/03 03:49:49;;;;;;;4.35;2.90;;;19.70;39.50;;;;;;8360064;28;20261;-49
2024/03/03 03:53:50;;;;;;;5.73;2.83;;;19.70;39.40;;;;;;8361270;28;20471;-48
2024/03/03 03:57:50;;;;;;;3.00;2.60;;;19.70;39.30;;;;;;8361347;28;20309;-49
2024/03/03 04:01:52;;;;;;;4.67;2.90;;;19.70;39.20;;;;;;8360888;28;20033;-49
2024/03/03 04:05:53;;;;;;;4.68;2.55;;;19.70;39.10;;;;;;8360688;28;20349;-51
2024/03/03 04:09:53;;;;;;;3.25;2.25;;;19.70;39.60;;;;;;8359701;28;20029;-52
2024/03/03 04:13:54;;;;;;;4.75;2.72;;;19.60;40.70;;;;;;8360384;28;20049;-50
2024/03/03 04:17:55;;;;;;;3.05;2.47;;;19.50;40.80;;;;;;8360406;28;20029;-53
2024/03/03 04:21:55;;;;;;;4.32;2.78;;;19.50;40.20;;;;;;8360637;28;20506;-49
2024/03/03 04:25:56;;;;;;;3.95;2.17;;;19.50;39.80;;;;;;8342787;28;20063;-52
2024/03/03 04:29:57;;;;;;;2.65;2.13;;;19.60;39.60;;;;;;8360180;28;20041;-51
2024/03/03 04:33:58;;;;;;;3.10;2.60;;;19.60;39.30;;;;;;8359912;28;20449;-53
2024/03/03 04:37:59;;;;;;;5.05;2.70;;;19.70;39.20;;;;;;8360093;28;20077;-50
2024/03/03 04:42:01;;;;;;;3.42;2.42;;;19.70;39.10;;;;;;8359665;28;20028;-50
2024/03/03 04:46:02;;;;;;;2.65;2.20;;;19.60;39.00;;;;;;8358499;28;20044;-51
2024/03/03 04:50:04;;;;;;;5.70;2.65;;;19.70;39.00;;;;;;8359573;28;20091;-51
2024/03/03 04:54:05;;;;;;;2.97;2.25;;;19.70;38.90;;;;;;8359127;28;20048;-49
2024/03/03 04:58:05;;;;;;;3.00;2.20;;;19.70;39.50;;;;;;8359907;28;20033;-49
2024/03/03 05:02:06;;;;;;;3.63;2.38;;;19.50;40.60;;;;;;8359926;28;20352;-53
2024/03/03 05:06:07;;;;;;;3.20;2.30;;;19.40;40.50;;;;;;8359440;28;20663;-49
2024/03/03 05:10:08;;;;;;;3.47;2.30;;;19.40;40.00;;;;;;8360491;28;20642;-49
2024/03/03 05:14:09;;;;;;;3.72;2.17;;;19.50;39.60;;;;;;8359287;28;20053;-48
2024/03/03 05:18:10;;;;;;;3.13;2.40;;;19.50;39.40;;;;;;8359253;28;20083;-49
2024/03/03 05:22:11;;;;;;;3.50;2.15;;;19.50;39.20;;;;;;8359052;28;20051;-50
2024/03/03 05:26:16;;;;;;;2.50;2.25;;;19.60;39.10;;;;;;8359141;28;20422;-52
2024/03/03 05:30:16;;;;;;;3.22;2.20;;;19.60;39.00;;;;;;8358818;28;20059;-48
2024/03/03 05:34:17;;;;;;;3.20;2.60;;;19.60;38.90;;;;;;8358866;28;20483;-50
2024/03/03 05:38:18;;;;;;;2.83;2.28;;;19.60;38.80;;;;;;8359139;28;20326;-47
2024/03/03 05:42:19;;;;;;;;;;;19.60;38.70;;;;;;8357580;28;20037;-49
2024/03/03 05:46:20;;;;;;;4.17;2.60;;;19.60;39.40;;;;;;8358536;28;19923;-49
2024/03/03 05:50:21;;;;;;;2.53;2.05;;;19.40;40.40;;;;;;8358814;28;20033;-50
2024/03/03 05:54:21;;;;;;;3.38;2.10;;;19.30;40.20;;;;;;8358808;28;20041;-49
2024/03/03 05:58:22;;;;;;;3.63;2.63;;;19.40;39.70;;;;;;8359032;28;20486;-52
2024/03/03 06:02:23;;;;;;;4.88;2.08;;;19.50;39.40;;;;;;8359087;28;20029;-50
2024/03/03 06:06:24;;;;;;;3.92;2.13;;;19.50;39.20;;;;;;8364564;28;20494;-49
2024/03/03 06:10:24;;;;;;;2.83;2.00;;;19.50;39.00;;;;;;8364533;28;20022;-51
2024/03/03 06:14:25;;;;;;;2.92;1.92;;;19.60;38.90;;;;;;8363863;28;20064;-51
2024/03/03 06:18:27;;;;;;;2.72;2.10;;;19.60;38.80;;;;;;8364207;28;20083;-50
2024/03/03 06:22:28;;;;;;;3.00;2.28;;;19.60;38.70;;;;;;8363890;28;20040;-48
2024/03/03 06:26:30;;;;;;;2.70;1.77;;;19.60;38.50;;;;;;8362312;28;20029;-49
2024/03/03 06:30:31;;;;;;;2.45;2.00;;;19.70;38.40;;;;;;8363547;28;20391;-51
2024/03/03 06:34:31;;;;;;;3.03;1.90;;;19.70;39.20;;;;;;8363436;28;20033;-53
2024/03/03 06:38:32;;;;;;;2.38;2.13;;;19.60;40.10;;;;;;8363300;28;20036;-51
2024/03/03 06:42:33;;;;;;;2.30;1.65;;;19.50;39.60;;;;;;8345280;28;20135;-51
2024/03/03 06:46:34;;;;;;;1.85;1.65;;;19.60;39.20;;;;;;8363209;28;20033;-51
2024/03/03 06:50:35;;;;;;;3.30;2.08;;;19.60;38.90;;;;;;8363000;28;20033;-50
2024/03/03 06:54:35;;;;;;;3.47;2.20;;;19.70;38.80;;;;;;8363067;28;20044;-50
2024/03/03 06:58:37;;;;;;;1.63;1.50;;;19.70;38.60;;;;;;8362870;28;20032;-51
2024/03/03 07:06:57;;;;;;;2.38;1.92;;;19.80;38.20;;;;;;8362581;28;20028;-53
2024/03/03 07:10:58;;;;;;;;;;;19.80;38.10;;;;;;8362757;28;20033;-51
2024/03/03 07:14:59;;;;;;;1.80;1.63;;;19.80;38.00;;;;;;8361462;28;19959;-52
2024/03/03 07:18:59;;;;;;;2.20;2.00;;;19.80;38.00;;;;;;8362187;28;20041;-47
2024/03/03 07:23:00;;;;;;;2.08;1.88;;;19.70;39.10;;;;;;8361986;28;20044;-49
2024/03/03 07:27:01;;;;;;;2.17;1.90;;;19.60;39.70;;;;;;8361886;28;20542;-47
2024/03/03 07:31:01;;;;;;;1.97;1.77;;;19.60;39.30;;;;;;8361707;28;20283;-48
2024/03/03 07:35:02;;;;;;;1.97;1.57;;;19.60;38.90;;;;;;8361564;28;20626;-46
2024/03/03 07:39:03;;;;;;;3.15;1.95;;;19.70;38.70;;;;;;8361654;28;20283;-46
2024/03/03 07:43:05;;;;;;;2.47;2.28;;;19.70;38.50;;;;;;8361547;28;20474;-46
2024/03/03 07:47:06;;;;;;;2.33;1.70;;;19.70;38.30;;;;;;8361084;28;20061;-46
2024/03/03 07:51:07;;;;;;;1.90;1.77;;;19.70;38.20;;;;;;8361261;28;20033;-46
2024/03/03 07:55:07;;;;;;;2.47;1.75;;;19.80;38.20;;;;;;8361089;28;20336;-47
2024/03/03 07:59:08;;;;;;;2.38;1.70;;;19.70;38.00;;;;;;8361520;28;20091;-49
2024/03/03 08:03:09;;;;;;;2.10;1.75;;;19.80;38.00;;;;;;8360901;28;20090;-46
2024/03/03 08:07:10;;;;;;;2.08;1.85;;;19.80;38.00;;;;;;8360968;28;20112;-49
2024/03/03 08:11:10;;;;;;;2.25;1.88;;;19.80;39.10;;;;;;8360642;28;20108;-47
2024/03/03 08:15:11;;;;;;;1.92;1.70;;;19.70;39.60;;;;;;8360335;28;20061;-48
2024/03/03 08:19:12;;;;;;;1.65;1.55;;;19.70;39.10;;;;;;8359919;28;20103;-47
2024/03/03 08:23:15;;;;;;;1.88;1.52;;;19.70;38.70;;;;;;8360288;28;20060;-46
2024/03/03 08:27:15;;;;;;;2.75;1.52;;;19.70;38.50;;;;;;8360275;28;20029;-46
2024/03/03 08:31:16;;;;;;;2.10;1.42;;;19.70;38.30;;;;;;8360269;28;20021;-50
2024/03/03 08:35:17;;;;;;;1.83;1.50;;;19.80;38.20;;;;;;8359907;28;20033;-49
2024/03/03 08:39:19;;;;;;;1.83;1.60;;;19.80;38.10;;;;;;8360162;28;20056;-50
2024/03/03 08:43:20;;;;;;;1.65;1.40;;;19.80;38.00;;;;;;8359281;28;20106;-50
2024/03/03 08:47:21;;;;;;;1.65;1.40;;;19.80;38.00;;;;;;8359912;28;20091;-49
2024/03/03 08:51:22;;;;;;;1.88;1.48;;;19.80;37.90;;;;;;8359758;28;20063;-50
2024/03/03 08:55:23;;;;;;;2.08;1.50;;;19.80;37.80;;;;;;8359659;28;20052;-51
2024/03/03 08:59:23;;;;;;;1.73;1.48;;;19.70;39.20;;;;;;8359902;28;20513;-50
2024/03/03 09:03:24;;;;;;;1.38;1.27;;;19.60;39.60;;;;;;8359659;28;20072;-51
2024/03/03 09:07:25;;;;;;;1.95;1.65;;;19.70;38.90;;;;;;8359593;28;20084;-50
2024/03/03 09:11:27;;;;;;;2.10;1.52;;;19.70;38.60;;;;;;8359597;28;20605;-50
2024/03/03 09:15:28;;;;;;;2.47;1.63;;;19.70;38.40;;;;;;8359200;28;20553;-50
2024/03/03 09:19:28;;;;;;;1.83;1.50;;;19.80;38.20;;;;;;8359443;28;20376;-51
2024/03/03 09:23:29;;;;;;;1.88;1.50;;;19.80;38.10;;;;;;8359361;28;20048;-50
2024/03/03 09:27:31;;;;;;;2.13;1.67;;;19.80;38.00;;;;;;8359202;28;20033;-51
2024/03/03 09:31:32;;;;;;;1.30;1.20;;;19.80;37.80;;;;;;8359185;28;20681;-51
2024/03/03 09:35:33;;;;;;;2.65;1.60;;;19.80;37.70;;;;;;8359050;28;20122;-50
2024/03/03 09:39:34;;;;;;;1.67;1.35;;;19.80;37.70;;;;;;8363102;28;20091;-52
2024/03/03 09:43:37;;;;;;;2.15;1.60;;;19.80;37.60;;;;;;8364604;28;20029;-51
2024/03/03 09:47:40;;;;;;;1.90;1.48;;;19.70;39.00;;;;;;8366314;28;20017;-50
2024/03/03 09:51:42;;;;;;;1.75;1.35;;;19.60;39.40;;;;;;8365206;28;20037;-48
2024/03/03 09:55:44;;;;;;;2.10;1.50;;;19.70;38.80;;;;;;8365176;28;20079;-51
2024/03/03 09:59:48;;;;;;;1.45;1.20;;;19.60;38.50;;;;;;8364999;28;20109;-52
2024/03/03 10:03:49;;;;;;;1.52;1.30;;;19.70;38.30;;;;;;8364461;28;20459;-51
2024/03/03 10:07:59;;;;;;;1.40;1.30;;;19.70;38.20;;;;;;8364772;28;20017;-49
2024/03/03 10:12:04;;;;;;;1.40;1.27;;;19.70;37.90;;;;;;8364811;28;20017;-50
2024/03/03 10:16:06;;;;;;;1.75;1.27;;;19.80;37.90;;;;;;8364172;28;20025;-50
2024/03/03 10:20:08;;;;;;;1.45;1.35;;;19.80;37.80;;;;;;8364189;28;20048;-53
2024/03/03 10:24:23;;;;;;;1.42;1.27;;;19.80;37.70;;;;;;8363952;28;20116;-51
2024/03/03 10:28:24;;;;;;;1.33;1.17;;;19.80;37.60;;;;;;8363820;28;20040;-51
2024/03/03 10:32:25;;;;;;;1.90;1.50;;;19.80;38.00;;;;;;8363829;28;20078;-50
2024/03/03 10:36:25;;;;;;;2.15;1.48;;;19.70;39.00;;;;;;8363644;28;20040;-51
2024/03/03 10:40:26;;;;;;;1.52;1.15;;;19.60;39.10;;;;;;8363287;28;20466;-52
2024/03/03 10:44:27;;;;;;;1.10;1.00;;;19.60;38.60;;;;;;8362146;28;20040;-51
2024/03/03 10:48:27;;;;;;;1.58;1.48;;;19.70;38.40;;;;;;8362678;28;20114;-52
2024/03/03 10:52:30;;;;;;;1.30;1.20;;;19.70;38.10;;;;;;8362514;28;20021;-49
2024/03/03 10:56:32;;;;;;;2.17;1.40;;;19.70;38.00;;;;;;8363943;28;20378;-46
2024/03/03 11:00:35;;;;;;;1.38;1.08;;;19.80;37.90;;;;;;8362997;28;20057;-45
2024/03/03 11:04:38;;;;;;;0.90;0.88;;;19.80;37.70;;;;;;8362841;28;20509;-47
2024/03/03 11:08:50;;;;;;;1.45;1.35;;;19.90;37.70;;;;;;8362629;28;20064;-47
2024/03/03 11:12:51;;;;;;;1.65;1.33;;;19.90;37.60;;;;;;8361405;28;20067;-47
2024/03/03 11:16:56;;;;;;;2.13;1.30;;;19.80;37.40;;;;;;8362582;28;20568;-46
2024/03/03 11:21:04;;;;;;;2.00;1.58;;;19.80;38.20;;;;;;8362548;28;20029;-47
2024/03/03 11:25:06;;;;;;;1.55;1.27;;;19.70;39.10;;;;;;8339620;28;20037;-48
2024/03/03 11:29:08;;;;;;;1.40;1.17;;;19.60;38.90;;;;;;8357644;28;20075;-47
2024/03/03 11:33:10;;;;;;;1.63;1.40;;;19.60;38.50;;;;;;8361713;28;20032;-48
2024/03/03 11:37:13;;;;;;;1.50;1.40;;;19.60;38.20;;;;;;8361733;28;20037;-47
2024/03/03 11:41:16;;;;;;;1.15;0.93;;;19.70;38.10;;;;;;8361436;28;20194;-47
2024/03/03 11:45:40;;;;;;;1.25;1.15;;;19.70;37.90;;;;;;8344102;28;20039;-47
2024/03/03 11:49:42;;;;;;;1.52;1.00;;;19.70;37.90;;;;;;8361380;28;20029;-46
2024/03/03 11:53:43;;;;;;;1.20;1.10;;;19.70;37.70;;;;;;8361161;28;20029;-47
2024/03/03 11:57:45;;;;;;;2.22;1.40;;;19.70;37.60;;;;;;8361252;28;20511;-47
2024/03/03 12:01:47;;;;;;;1.02;1.00;;;19.80;37.60;;;;;;8360951;28;20498;-49
2024/03/03 12:05:50;;;;;;;1.13;1.00;;;19.80;37.40;;;;;;8359498;28;20028;-50
2024/03/03 12:09:50;;;;;;;1.38;1.10;;;19.70;38.50;;;;;;8360685;28;20017;-48
2024/03/03 12:13:57;;;;;;;1.20;1.10;;;19.60;39.20;;;;;;8360515;28;20057;-49
2024/03/03 12:18:00;;;;;;;1.42;1.20;;;19.60;38.70;;;;;;8360595;28;20291;-51
2024/03/03 12:22:05;;;;;;;1.33;1.23;;;19.60;38.30;;;;;;8360621;28;20040;-47
2024/03/03 12:26:06;;;;;;;1.77;1.20;;;19.70;38.20;;;;;;8360166;28;20071;-51
2024/03/03 12:30:11;;;;;;;1.17;0.98;;;19.70;37.90;;;;;;8360426;28;20040;-48
2024/03/03 12:34:12;;;;;;;1.27;1.17;;;19.70;37.80;;;;;;8360047;28;20037;-49
2024/03/03 12:38:12;;;;;;;1.17;1.08;;;19.70;37.60;;;;;;8360202;28;20037;-50
2024/03/03 12:42:14;;;;;;;1.08;0.98;;;19.80;37.60;;;;;;8359450;28;20033;-53
2024/03/03 12:46:15;;;;;;;1.20;1.10;;;19.80;37.50;;;;;;8359901;28;20498;-51
2024/03/03 12:50:18;;;;;;;1.00;0.90;;;19.80;37.40;;;;;;8359926;28;20037;-48
2024/03/03 12:54:19;;;;;;;1.77;1.27;;;19.80;37.30;;;;;;8358436;28;20124;-50
2024/03/03 12:58:20;;;;;;;1.20;1.10;;;19.80;38.60;;;;;;8359967;28;20033;-49
2024/03/03 13:02:21;;;;;;;;;;;19.60;39.10;;;;;;8360473;28;20122;-49
2024/03/03 13:06:22;;;;;;;1.33;1.10;;;19.60;38.50;;;;;;8359805;28;19909;-51
2024/03/03 13:10:24;;;;;;;1.20;1.10;;;19.70;38.20;;;;;;8359438;28;20033;-47
2024/03/03 13:14:24;;;;;;;1.10;1.00;;;19.70;37.90;;;;;;8363348;28;20057;-48
2024/03/03 13:18:25;;;;;;;1.35;1.25;;;19.70;37.80;;;;;;8366171;28;20041;-46
2024/03/03 13:22:26;;;;;;;0.95;0.85;;;19.70;38.20;;;;;;8366177;28;20032;-46
2024/03/03 13:26:26;;;;;;;1.38;0.90;;;19.80;37.60;;;;;;8365615;28;20120;-47
2024/03/03 13:30:29;;;;;;;1.95;1.25;;;19.80;37.40;;;;;;8365718;28;20059;-47
2024/03/03 13:34:29;;;;;;;1.00;0.90;;;19.80;37.40;;;;;;8365467;28;20052;-47
2024/03/03 13:38:31;;;;;;;0.80;0.80;;;19.80;37.30;;;;;;8365438;28;20044;-47
2024/03/03 13:42:31;;;;;;;;;;;19.80;37.30;;;;;;8365269;28;20036;-47
2024/03/03 13:46:32;;;;;;;1.17;1.00;;;19.70;38.60;;;;;;8365060;28;19966;-46
2024/03/03 13:50:32;;;;;;;1.13;0.90;;;19.60;39.00;;;;;;8363873;28;20383;-47
2024/03/03 13:54:34;;;;;;;1.00;0.90;;;19.60;38.40;;;;;;8364852;28;20357;-47
2024/03/03 13:58:35;;;;;;;1.17;1.08;;;19.70;38.20;;;;;;8364592;28;20036;-46
2024/03/03 14:02:36;;;;;;;1.30;1.20;;;19.70;37.90;;;;;;8365255;28;20029;-45
2024/03/03 14:06:37;;;;;;;1.00;0.90;;;19.70;37.80;;;;;;8364637;28;20556;-49
2024/03/03 14:10:38;;;;;;;1.50;1.00;;;19.70;37.60;;;;;;8364564;28;20108;-47
2024/03/03 14:14:39;;;;;;;1.25;1.08;;;19.80;37.50;;;;;;8362916;28;20060;-46
2024/03/03 14:18:40;;;;;;;1.15;1.00;;;19.80;37.40;;;;;;8364145;28;20241;-45
2024/03/03 14:22:41;;;;;;;5.93;3.92;;;19.70;37.50;;;;;;8345471;28;20062;-48
2024/03/03 14:26:42;;;;;;;8.85;5.47;;;19.60;38.20;;;;;;8339334;28;20040;-46
2024/03/03 14:30:43;;;;;;;8.60;5.78;;;19.50;38.70;;;;;;8363695;28;20049;-47
2024/03/03 14:34:44;;;;;;;10.00;6.90;;;19.20;40.60;;;;;;8363668;28;20044;-46
2024/03/03 14:38:45;;;;;;;9.15;6.18;;;19.10;40.70;;;;;;8363515;28;20037;-48
2024/03/03 14:42:45;;;;;;;10.10;6.82;;;19.10;39.90;;;;;;8362921;28;20114;-48
2024/03/03 14:46:46;;;;;;;9.68;6.57;;;19.20;39.30;;;;;;8336676;28;20120;-47
2024/03/03 14:50:47;;;;;;;9.80;7.18;;;19.30;39.10;;;;;;8328780;28;20026;-44
2024/03/03 14:54:48;;;;;;;10.10;6.83;;;19.20;39.50;;;;;;8329988;28;20480;-45
2024/03/03 14:58:48;;;;;;;12.03;7.03;;;19.30;39.00;;;;;;8355880;28;20298;-45
2024/03/03 15:02:49;;;;;;;13.30;6.70;;;19.30;38.90;;;;;;8362747;28;20294;-45
2024/03/03 15:06:50;;;;;;;10.55;6.05;;;19.30;38.90;;;;;;8362571;28;20680;-45
2024/03/03 15:10:51;;;;;;;8.88;6.10;;;19.40;38.80;;;;;;8362493;28;20136;-46
2024/03/03 15:14:51;;;;;;;12.75;5.55;;;19.40;38.50;;;;;;8362148;28;20434;-46
2024/03/03 15:18:53;;;;;;;7.53;4.88;;;19.50;38.80;;;;;;8360117;28;20116;-47
2024/03/03 15:22:54;;;;;;;7.35;4.60;;;19.50;40.40;;;;;;8362274;28;20059;-46
2024/03/03 15:26:55;;;;;;;8.45;4.10;;;19.50;40.30;;;;;;8361571;28;20037;-47
2024/03/03 15:30:55;;;;;;;5.65;3.78;;;19.70;39.50;;;;;;8361969;28;20029;-46
2024/03/03 15:34:56;;;;;;;8.10;4.20;;;19.80;39.10;;;;;;8360827;28;20487;-49
2024/03/03 15:38:57;;;;;;;7.38;3.70;;;19.90;39.30;;;;;;8341924;28;20112;-50
2024/03/03 15:42:58;;;;;;;6.70;3.72;;;19.90;39.20;;;;;;8356263;28;20040;-50
2024/03/03 15:46:59;;;;;;;5.72;3.53;;;20.10;39.30;;;;;;8363313;28;20074;-49
2024/03/03 15:50:59;;;;;;;;;;;20.20;39.50;;;;;;8363730;28;20510;-48
2024/03/03 15:55:01;;;;;;;6.63;3.33;;;20.20;39.50;;;;;;8363372;28;20283;-49
2024/03/03 15:59:01;;;;;;;6.57;3.40;;;20.30;39.40;;;;;;8363240;28;20037;-47
2024/03/03 16:03:04;;;;;;;10.95;3.80;;;20.40;39.30;;;;;;8362171;28;20505;-48
2024/03/03 16:07:04;;;;;;;6.20;3.20;;;20.40;39.90;;;;;;8362604;28;20391;-47
2024/03/03 16:11:05;;;;;;;9.48;3.45;;;20.30;40.90;;;;;;8362622;28;20425;-46
2024/03/03 16:15:06;;;;;;;8.23;3.17;;;20.20;40.80;;;;;;8362373;28;20053;-47
2024/03/03 16:19:07;;;;;;;7.18;3.17;;;20.20;40.40;;;;;;8362365;28;20072;-48
2024/03/03 16:23:08;;;;;;;7.88;3.65;;;20.10;41.00;;;;;;8362469;28;20037;-48
2024/03/03 16:27:10;;;;;;;12.20;3.35;;;20.00;41.30;;;;;;8362412;28;20041;-46
2024/03/03 16:31:11;;;;;;;6.72;2.97;;;20.00;41.50;;;;;;8362043;28;20040;-48
2024/03/03 16:35:12;;;;;;;6.30;2.90;;;20.00;41.60;;;;;;8362128;28;20068;-50
2024/03/03 16:39:13;;;;;;;4.97;3.10;;;20.00;41.60;;;;;;8361721;28;20143;-47
2024/03/03 16:43:14;;;;;;;5.38;3.15;;;20.00;41.60;;;;;;8361502;28;20090;-48
2024/03/03 16:47:14;;;;;;;7.18;3.22;;;20.00;41.70;;;;;;8361608;28;20426;-49
2024/03/03 16:51:15;;;;;;;7.03;2.97;;;20.00;41.60;;;;;;8361622;28;20104;-47
2024/03/03 16:55:18;;;;;;;7.22;3.22;;;20.00;41.90;;;;;;8333663;28;20033;-48
2024/03/03 16:59:19;;;;;;;6.20;3.15;;;20.00;41.80;;;;;;8358713;28;20478;-47
2024/03/03 17:03:19;;;;;;;10.45;3.03;;;20.00;41.80;;;;;;8361808;28;20403;-48
2024/03/03 17:07:20;;;;;;;5.50;2.95;;;20.00;41.80;;;;;;8361300;28;20414;-46
2024/03/03 17:11:21;;;;;;;5.95;2.97;;;20.00;41.80;;;;;;8361531;28;20029;-50
2024/03/03 17:15:23;;;;;;;5.63;3.03;;;20.10;41.70;;;;;;8360976;28;20089;-52
2024/03/03 17:19:23;;;;;;;3.80;2.97;;;20.10;41.80;;;;;;8360745;28;20043;-46
2024/03/03 17:23:26;;;;;;;6.22;2.75;;;20.10;42.00;;;;;;8359997;28;20120;-53
2024/03/03 17:27:26;;;;;;;7.50;3.25;;;20.10;42.00;;;;;;8360861;28;20044;-57
2024/03/03 17:31:27;;;;;;;7.25;3.25;;;20.10;41.80;;;;;;8361141;28;20029;-53
2024/03/03 17:35:28;;;;;;;7.78;2.80;;;20.10;41.90;;;;;;8360973;28;20044;-54
2024/03/03 17:39:29;;;;;;;4.05;2.28;;;20.10;42.10;;;;;;8346137;28;20395;-49
2024/03/03 17:43:31;;;;;;;5.35;2.67;;;20.10;42.00;;;;;;8357725;28;20154;-49
2024/03/03 17:47:32;;;;;;;7.25;2.63;;;20.10;42.20;;;;;;8360856;28;20179;-49
2024/03/03 17:51:33;;;;;;;8.82;3.60;;;20.10;42.10;;;;;;8360897;28;20048;-45
2024/03/03 17:55:34;;;;;;;5.95;2.67;;;20.10;42.10;;;;;;8360693;28;20090;-52
2024/03/03 17:59:34;;;;;;;4.82;2.70;;;20.10;42.00;;;;;;8395619;28;20119;-48
2024/03/03 18:03:35;;;;;;;7.05;2.70;;;20.10;42.30;;;;;;8399772;28;20454;-48
2024/03/03 18:07:36;;;;;;;5.88;2.78;;;20.10;42.10;;;;;;8399709;28;20048;-49
2024/03/03 18:11:36;;;;;;;4.20;2.33;;;20.10;42.30;;;;;;8399739;28;20029;-45
2024/03/03 18:15:37;;;;;;;3.50;2.35;;;20.10;42.10;;;;;;8399209;28;20061;-45
2024/03/03 18:19:38;;;;;;;3.40;2.28;;;20.10;42.10;;;;;;8399162;28;20025;-45
2024/03/03 18:23:41;;;;;;;4.47;2.50;;;20.10;42.00;;;;;;8399145;28;20052;-46
2024/03/03 18:27:41;;;;;;;3.78;2.95;;;20.10;42.00;;;;;;8380992;28;20471;-50
2024/03/03 18:31:42;;;;;;;2.97;2.28;;;20.10;42.00;;;;;;8364416;28;20037;-47
2024/03/03 18:35:43;;;;;;;2.55;2.20;;;20.10;42.10;;;;;;8365578;28;20036;-48
2024/03/03 18:39:44;;;;;;;2.83;2.20;;;20.10;42.10;;;;;;8348788;28;20121;-48
2024/03/03 18:43:46;;;;;;;;;;;20.10;42.20;;;;;;8364887;28;20033;-47
2024/03/03 18:47:46;;;;;;;3.15;2.13;;;20.10;42.10;;;;;;8365307;28;20344;-48
2024/03/03 18:51:48;;;;;;;3.60;2.35;;;20.10;42.10;;;;;;8365219;28;20025;-50
2024/03/03 18:55:49;;;;;;;3.38;2.25;;;20.10;42.10;;;;;;8365345;28;20041;-47
2024/03/03 18:59:49;;;;;;;4.95;2.75;;;20.10;42.20;;;;;;8364985;28;20120;-46
2024/03/03 19:03:50;;;;;;;4.20;2.30;;;20.10;42.40;;;;;;8355210;28;20095;-50
2024/03/03 19:07:56;;;;;;;5.18;2.00;;;20.20;41.90;;;;;;8329442;28;20546;-49
2024/03/03 19:11:58;;;;;;;5.10;2.13;;;20.30;40.90;;;;;;8327188;28;20392;-50
2024/03/03 19:15:58;;;;;;;3.97;2.55;;;20.30;40.60;;;;;;8328625;28;20092;-50
2024/03/03 19:19:59;;;;;;;2.30;2.08;;;20.20;40.40;;;;;;8328627;28;20090;-49
2024/03/03 19:24:00;;;;;;;8.70;2.33;;;20.20;40.30;;;;;;8328890;28;20491;-50
2024/03/03 19:28:00;;;;;;;3.90;2.05;;;20.20;40.10;;;;;;8348416;28;20033;-50
2024/03/03 19:32:02;;;;;;;2.65;2.20;;;20.20;40.00;;;;;;8362406;28;20037;-49
2024/03/03 19:36:04;;;;;;;3.85;1.90;;;20.20;39.80;;;;;;8361779;28;20040;-49
2024/03/03 19:40:09;;;;;;;3.35;2.05;;;20.20;39.60;;;;;;8361571;28;20040;-49
2024/03/03 19:44:10;;;;;;;4.97;1.80;;;20.20;39.70;;;;;;8361380;28;20553;-50
2024/03/03 19:48:10;;;;;;;2.97;2.33;;;20.00;41.10;;;;;;8361778;28;20037;-51
2024/03/03 19:52:12;;;;;;;5.28;2.28;;;19.90;40.90;;;;;;8361388;28;20027;-49
2024/03/03 19:56:13;;;;;;;5.22;2.63;;;20.00;40.40;;;;;;8361361;28;20029;-50
2024/03/03 20:00:14;;;;;;;4.05;2.10;;;20.00;40.10;;;;;;8361205;28;20090;-50
2024/03/03 20:04:14;;;;;;;3.22;2.13;;;20.10;39.90;;;;;;8361093;28;20052;-50
2024/03/03 20:08:17;;;;;;;3.53;2.08;;;20.10;39.60;;;;;;8360897;28;20036;-49
2024/03/03 20:12:17;;;;;;;3.40;2.13;;;20.10;39.40;;;;;;8361196;28;20119;-49
2024/03/03 20:16:18;;;;;;;2.92;2.10;;;20.10;39.30;;;;;;8360646;28;20037;-50
2024/03/03 20:20:19;;;;;;;4.32;2.42;;;20.10;39.20;;;;;;8360354;28;20041;-49
2024/03/03 20:24:19;;;;;;;3.47;1.83;;;20.10;39.10;;;;;;8360567;28;20041;-50
2024/03/03 20:28:20;;;;;;;2.58;2.08;;;20.10;39.10;;;;;;8360320;28;20503;-49
2024/03/03 20:32:21;;;;;;;4.75;2.15;;;20.10;39.80;;;;;;8358703;28;20032;-50
2024/03/03 20:36:21;;;;;;;2.70;2.10;;;19.90;40.80;;;;;;8360088;28;20658;-49
2024/03/03 20:40:22;;;;;;;3.85;2.25;;;19.80;40.60;;;;;;8358560;28;20123;-49
2024/03/03 20:44:23;;;;;;;3.42;1.60;;;19.90;40.00;;;;;;8360313;28;20029;-51
2024/03/03 20:48:24;;;;;;;3.33;1.70;;;20.00;39.80;;;;;;8359802;28;20068;-51
2024/03/03 20:52:25;;;;;;;2.22;1.55;;;20.00;39.50;;;;;;8359680;28;20033;-51
2024/03/03 20:56:25;;;;;;;3.42;1.73;;;20.00;39.40;;;;;;8358780;28;20045;-49
2024/03/03 21:00:27;;;;;;;3.20;1.88;;;20.00;39.20;;;;;;8359748;28;20033;-52